sensor_id;sensor_type;location;lat;lon;timestamp;P1;durP1;ratioP1;P2;durP2;ratioP2
11486;SDS011;10510;47.942;9.442;2022-07-04T00:00:49;3.35;;;2.28;;
11486;SDS011;10510;47.942;9.442;2022-07-04T00:02:49;5.38;;;2.10;;
11486;SDS011;10510;47.942;9.442;2022-07-04T00:04:50;2.45;;;2.00;;
11486;SDS011;10510;47.942;9.442;2022-07-04T00:06:51;3.58;;;2.17;;
11486;SDS011;10510;47.942;9.442;2022-07-04T00:08:51;4.38;;;1.75;;
11486;SDS011;10510;47.942;9.442;2022-07-04T00:10:51;1.98;;;1.77;;
11486;SDS011;10510;47.942;9.442;2022-07-04T00:12:51;3.67;;;2.30;;
11486;SDS011;10510;47.942;9.442;2022-07-04T00:14:52;4.72;;;2.20;;
11486;SDS011;10510;47.942;9.442;2022-07-04T00:16:52;3.83;;;2.30;;
11486;SDS011;10510;47.942;9.442;2022-07-04T00:18:52;4.97;;;2.40;;
11486;SDS011;10510;47.942;9.442;2022-07-04T00:20:53;3.53;;;2.60;;
11486;SDS011;10510;47.942;9.442;2022-07-04T00:22:53;4.07;;;2.30;;
11486;SDS011;10510;47.942;9.442;2022-07-04T00:24:54;10.55;;;2.40;;
11486;SDS011;10510;47.942;9.442;2022-07-04T00:26:55;3.88;;;2.25;;
11486;SDS011;10510;47.942;9.442;2022-07-04T00:28:55;3.53;;;2.40;;
11486;SDS011;10510;47.942;9.442;2022-07-04T00:30:55;4.72;;;2.40;;
11486;SDS011;10510;47.942;9.442;2022-07-04T00:32:55;3.35;;;2.35;;
11486;SDS011;10510;47.942;9.442;2022-07-04T00:34:56;4.40;;;2.20;;
11486;SDS011;10510;47.942;9.442;2022-07-04T00:36:56;4.38;;;2.70;;
11486;SDS011;10510;47.942;9.442;2022-07-04T00:38:56;6.93;;;3.15;;
11486;SDS011;10510;47.942;9.442;2022-07-04T00:40:57;9.35;;;5.28;;
11486;SDS011;10510;47.942;9.442;2022-07-04T00:43:01;10.35;;;5.45;;
11486;SDS011;10510;47.942;9.442;2022-07-04T00:45:02;12.55;;;5.63;;
11486;SDS011;10510;47.942;9.442;2022-07-04T00:47:04;5.60;;;3.40;;
11486;SDS011;10510;47.942;9.442;2022-07-04T00:49:06;3.58;;;2.63;;
11486;SDS011;10510;47.942;9.442;2022-07-04T00:51:06;3.40;;;2.40;;
11486;SDS011;10510;47.942;9.442;2022-07-04T00:53:07;5.25;;;2.50;;
11486;SDS011;10510;47.942;9.442;2022-07-04T00:55:07;5.38;;;2.42;;
11486;SDS011;10510;47.942;9.442;2022-07-04T00:57:09;3.50;;;2.40;;
11486;SDS011;10510;47.942;9.442;2022-07-04T00:59:09;4.20;;;2.10;;
11486;SDS011;10510;47.942;9.442;2022-07-04T01:01:10;2.90;;;2.20;;
11486;SDS011;10510;47.942;9.442;2022-07-04T01:03:11;3.38;;;1.92;;
11486;SDS011;10510;47.942;9.442;2022-07-04T01:05:11;5.53;;;2.00;;
11486;SDS011;10510;47.942;9.442;2022-07-04T01:07:12;3.28;;;1.80;;
11486;SDS011;10510;47.942;9.442;2022-07-04T01:09:13;5.75;;;2.60;;
11486;SDS011;10510;47.942;9.442;2022-07-04T01:11:14;4.47;;;2.20;;
11486;SDS011;10510;47.942;9.442;2022-07-04T01:13:21;3.22;;;2.17;;
11486;SDS011;10510;47.942;9.442;2022-07-04T01:15:22;2.08;;;1.83;;
11486;SDS011;10510;47.942;9.442;2022-07-04T01:17:23;3.35;;;2.00;;
11486;SDS011;10510;47.942;9.442;2022-07-04T01:19:23;3.80;;;2.40;;
11486;SDS011;10510;47.942;9.442;2022-07-04T01:21:23;3.05;;;1.85;;
11486;SDS011;10510;47.942;9.442;2022-07-04T01:23:24;3.38;;;2.20;;
11486;SDS011;10510;47.942;9.442;2022-07-04T01:25:24;2.47;;;1.95;;
11486;SDS011;10510;47.942;9.442;2022-07-04T01:27:25;3.45;;;2.13;;
11486;SDS011;10510;47.942;9.442;2022-07-04T01:29:25;2.45;;;2.08;;
11486;SDS011;10510;47.942;9.442;2022-07-04T01:31:25;3.10;;;2.22;;
11486;SDS011;10510;47.942;9.442;2022-07-04T01:33:25;2.90;;;2.20;;
11486;SDS011;10510;47.942;9.442;2022-07-04T01:35:26;4.50;;;2.22;;
11486;SDS011;10510;47.942;9.442;2022-07-04T01:37:27;2.83;;;2.00;;
11486;SDS011;10510;47.942;9.442;2022-07-04T01:39:27;3.25;;;2.00;;
11486;SDS011;10510;47.942;9.442;2022-07-04T01:41:32;3.42;;;2.35;;
11486;SDS011;10510;47.942;9.442;2022-07-04T01:43:33;4.43;;;2.25;;
11486;SDS011;10510;47.942;9.442;2022-07-04T01:45:35;5.03;;;2.03;;
11486;SDS011;10510;47.942;9.442;2022-07-04T01:47:37;3.97;;;2.20;;
11486;SDS011;10510;47.942;9.442;2022-07-04T01:49:38;5.55;;;2.42;;
11486;SDS011;10510;47.942;9.442;2022-07-04T01:51:45;6.88;;;2.20;;
11486;SDS011;10510;47.942;9.442;2022-07-04T01:55:47;4.87;;;1.47;;
11486;SDS011;10510;47.942;9.442;2022-07-04T01:57:47;4.88;;;2.45;;
11486;SDS011;10510;47.942;9.442;2022-07-04T01:59:47;5.10;;;2.20;;
11486;SDS011;10510;47.942;9.442;2022-07-04T02:02:06;4.07;;;1.80;;
11486;SDS011;10510;47.942;9.442;2022-07-04T02:04:07;3.92;;;2.25;;
11486;SDS011;10510;47.942;9.442;2022-07-04T02:06:07;3.35;;;2.10;;
11486;SDS011;10510;47.942;9.442;2022-07-04T02:08:08;6.10;;;2.30;;
11486;SDS011;10510;47.942;9.442;2022-07-04T02:10:11;2.38;;;2.17;;
11486;SDS011;10510;47.942;9.442;2022-07-04T02:12:11;5.05;;;2.97;;
11486;SDS011;10510;47.942;9.442;2022-07-04T02:14:31;5.43;;;2.30;;
11486;SDS011;10510;47.942;9.442;2022-07-04T02:16:32;5.28;;;2.60;;
11486;SDS011;10510;47.942;9.442;2022-07-04T02:18:32;5.55;;;2.67;;
11486;SDS011;10510;47.942;9.442;2022-07-04T02:20:33;4.43;;;2.40;;
11486;SDS011;10510;47.942;9.442;2022-07-04T02:22:35;3.53;;;2.67;;
11486;SDS011;10510;47.942;9.442;2022-07-04T02:24:35;5.00;;;2.13;;
11486;SDS011;10510;47.942;9.442;2022-07-04T02:26:36;2.63;;;1.98;;
11486;SDS011;10510;47.942;9.442;2022-07-04T02:28:36;3.10;;;2.35;;
11486;SDS011;10510;47.942;9.442;2022-07-04T02:30:36;5.50;;;2.55;;
11486;SDS011;10510;47.942;9.442;2022-07-04T02:32:37;6.07;;;2.17;;
11486;SDS011;10510;47.942;9.442;2022-07-04T02:34:37;6.28;;;2.88;;
11486;SDS011;10510;47.942;9.442;2022-07-04T02:36:38;6.22;;;2.65;;
11486;SDS011;10510;47.942;9.442;2022-07-04T02:38:38;7.80;;;2.75;;
11486;SDS011;10510;47.942;9.442;2022-07-04T02:40:39;5.28;;;2.47;;
11486;SDS011;10510;47.942;9.442;2022-07-04T02:42:39;5.45;;;2.92;;
11486;SDS011;10510;47.942;9.442;2022-07-04T02:44:39;5.78;;;2.72;;
11486;SDS011;10510;47.942;9.442;2022-07-04T02:46:41;3.00;;;2.53;;
11486;SDS011;10510;47.942;9.442;2022-07-04T02:48:41;5.82;;;2.72;;
11486;SDS011;10510;47.942;9.442;2022-07-04T02:50:42;5.35;;;3.10;;
11486;SDS011;10510;47.942;9.442;2022-07-04T02:52:42;6.75;;;3.03;;
11486;SDS011;10510;47.942;9.442;2022-07-04T02:54:42;6.20;;;3.05;;
11486;SDS011;10510;47.942;9.442;2022-07-04T02:56:42;6.20;;;2.72;;
11486;SDS011;10510;47.942;9.442;2022-07-04T02:58:43;7.35;;;3.22;;
11486;SDS011;10510;47.942;9.442;2022-07-04T03:00:43;8.70;;;3.15;;
11486;SDS011;10510;47.942;9.442;2022-07-04T03:02:43;10.73;;;3.03;;
11486;SDS011;10510;47.942;9.442;2022-07-04T03:04:44;4.30;;;2.67;;
11486;SDS011;10510;47.942;9.442;2022-07-04T03:06:44;10.05;;;2.80;;
11486;SDS011;10510;47.942;9.442;2022-07-04T03:08:44;3.85;;;2.30;;
11486;SDS011;10510;47.942;9.442;2022-07-04T03:10:45;8.60;;;2.40;;
11486;SDS011;10510;47.942;9.442;2022-07-04T03:12:45;7.80;;;2.80;;
11486;SDS011;10510;47.942;9.442;2022-07-04T03:14:45;12.65;;;4.10;;
11486;SDS011;10510;47.942;9.442;2022-07-04T03:16:45;7.53;;;2.83;;
11486;SDS011;10510;47.942;9.442;2022-07-04T03:18:46;9.07;;;2.95;;
11486;SDS011;10510;47.942;9.442;2022-07-04T03:20:46;7.68;;;3.42;;
11486;SDS011;10510;47.942;9.442;2022-07-04T03:22:48;7.40;;;3.30;;
11486;SDS011;10510;47.942;9.442;2022-07-04T03:24:48;5.72;;;2.85;;
11486;SDS011;10510;47.942;9.442;2022-07-04T03:26:49;12.93;;;3.05;;
11486;SDS011;10510;47.942;9.442;2022-07-04T03:28:49;7.88;;;2.67;;
11486;SDS011;10510;47.942;9.442;2022-07-04T03:30:49;8.13;;;2.88;;
11486;SDS011;10510;47.942;9.442;2022-07-04T03:32:49;7.97;;;3.10;;
11486;SDS011;10510;47.942;9.442;2022-07-04T03:34:50;9.82;;;3.00;;
11486;SDS011;10510;47.942;9.442;2022-07-04T03:36:50;6.68;;;3.13;;
11486;SDS011;10510;47.942;9.442;2022-07-04T03:38:50;7.35;;;3.63;;
11486;SDS011;10510;47.942;9.442;2022-07-04T03:40:51;9.18;;;3.72;;
11486;SDS011;10510;47.942;9.442;2022-07-04T03:42:51;9.10;;;4.18;;
11486;SDS011;10510;47.942;9.442;2022-07-04T03:44:51;5.28;;;3.22;;
11486;SDS011;10510;47.942;9.442;2022-07-04T03:46:52;7.38;;;3.97;;
11486;SDS011;10510;47.942;9.442;2022-07-04T03:48:52;6.82;;;3.67;;
11486;SDS011;10510;47.942;9.442;2022-07-04T03:50:53;6.43;;;2.90;;
11486;SDS011;10510;47.942;9.442;2022-07-04T03:52:53;8.57;;;3.40;;
11486;SDS011;10510;47.942;9.442;2022-07-04T03:54:54;4.65;;;2.92;;
11486;SDS011;10510;47.942;9.442;2022-07-04T03:56:54;6.45;;;2.92;;
11486;SDS011;10510;47.942;9.442;2022-07-04T03:58:55;8.10;;;3.08;;
11486;SDS011;10510;47.942;9.442;2022-07-04T04:00:55;5.15;;;3.00;;
11486;SDS011;10510;47.942;9.442;2022-07-04T04:02:58;3.20;;;2.53;;
11486;SDS011;10510;47.942;9.442;2022-07-04T04:04:58;4.13;;;2.40;;
11486;SDS011;10510;47.942;9.442;2022-07-04T04:07:17;4.97;;;2.25;;
11486;SDS011;10510;47.942;9.442;2022-07-04T04:09:17;4.78;;;2.63;;
11486;SDS011;10510;47.942;9.442;2022-07-04T04:11:19;3.85;;;2.20;;
11486;SDS011;10510;47.942;9.442;2022-07-04T04:13:19;5.97;;;2.08;;
11486;SDS011;10510;47.942;9.442;2022-07-04T04:15:19;2.47;;;2.20;;
11486;SDS011;10510;47.942;9.442;2022-07-04T04:17:20;7.15;;;2.92;;
11486;SDS011;10510;47.942;9.442;2022-07-04T04:19:20;2.97;;;2.20;;
11486;SDS011;10510;47.942;9.442;2022-07-04T04:21:21;2.72;;;1.90;;
11486;SDS011;10510;47.942;9.442;2022-07-04T04:23:21;5.07;;;2.97;;
11486;SDS011;10510;47.942;9.442;2022-07-04T04:25:21;4.28;;;2.30;;
11486;SDS011;10510;47.942;9.442;2022-07-04T04:27:22;2.60;;;2.28;;
11486;SDS011;10510;47.942;9.442;2022-07-04T04:29:22;6.35;;;2.85;;
11486;SDS011;10510;47.942;9.442;2022-07-04T04:31:22;4.75;;;2.30;;
11486;SDS011;10510;47.942;9.442;2022-07-04T04:33:23;4.57;;;2.10;;
11486;SDS011;10510;47.942;9.442;2022-07-04T04:35:23;5.35;;;2.50;;
11486;SDS011;10510;47.942;9.442;2022-07-04T04:37:23;6.18;;;2.42;;
11486;SDS011;10510;47.942;9.442;2022-07-04T04:39:24;4.90;;;2.50;;
11486;SDS011;10510;47.942;9.442;2022-07-04T04:41:24;6.97;;;2.88;;
11486;SDS011;10510;47.942;9.442;2022-07-04T04:43:24;4.65;;;2.92;;
11486;SDS011;10510;47.942;9.442;2022-07-04T04:45:25;4.57;;;2.90;;
11486;SDS011;10510;47.942;9.442;2022-07-04T04:47:25;5.28;;;2.92;;
11486;SDS011;10510;47.942;9.442;2022-07-04T04:49:25;4.95;;;3.10;;
11486;SDS011;10510;47.942;9.442;2022-07-04T04:51:25;5.55;;;3.22;;
11486;SDS011;10510;47.942;9.442;2022-07-04T04:53:26;4.93;;;2.88;;
11486;SDS011;10510;47.942;9.442;2022-07-04T04:55:26;6.82;;;2.60;;
11486;SDS011;10510;47.942;9.442;2022-07-04T04:57:26;3.47;;;2.40;;
11486;SDS011;10510;47.942;9.442;2022-07-04T04:59:28;3.70;;;2.78;;
11486;SDS011;10510;47.942;9.442;2022-07-04T05:01:29;5.65;;;2.38;;
11486;SDS011;10510;47.942;9.442;2022-07-04T05:03:29;3.28;;;2.63;;
11486;SDS011;10510;47.942;9.442;2022-07-04T05:05:29;3.50;;;2.28;;
11486;SDS011;10510;47.942;9.442;2022-07-04T05:07:30;4.05;;;2.58;;
11486;SDS011;10510;47.942;9.442;2022-07-04T05:09:30;4.63;;;2.42;;
11486;SDS011;10510;47.942;9.442;2022-07-04T05:11:30;3.13;;;2.45;;
11486;SDS011;10510;47.942;9.442;2022-07-04T05:13:31;5.35;;;2.55;;
11486;SDS011;10510;47.942;9.442;2022-07-04T05:15:31;4.03;;;2.60;;
11486;SDS011;10510;47.942;9.442;2022-07-04T05:17:32;5.32;;;3.17;;
11486;SDS011;10510;47.942;9.442;2022-07-04T05:19:32;10.98;;;5.60;;
11486;SDS011;10510;47.942;9.442;2022-07-04T05:21:33;3.67;;;2.92;;
11486;SDS011;10510;47.942;9.442;2022-07-04T05:23:33;4.88;;;2.60;;
11486;SDS011;10510;47.942;9.442;2022-07-04T05:25:33;5.55;;;2.40;;
11486;SDS011;10510;47.942;9.442;2022-07-04T05:27:34;4.43;;;2.60;;
11486;SDS011;10510;47.942;9.442;2022-07-04T05:29:34;7.93;;;2.38;;
11486;SDS011;10510;47.942;9.442;2022-07-04T05:31:34;3.92;;;2.20;;
11486;SDS011;10510;47.942;9.442;2022-07-04T05:33:34;4.80;;;2.45;;
11486;SDS011;10510;47.942;9.442;2022-07-04T05:35:35;4.30;;;2.10;;
11486;SDS011;10510;47.942;9.442;2022-07-04T05:37:36;2.63;;;2.10;;
11486;SDS011;10510;47.942;9.442;2022-07-04T05:39:36;7.25;;;2.50;;
11486;SDS011;10510;47.942;9.442;2022-07-04T05:41:37;2.40;;;1.90;;
11486;SDS011;10510;47.942;9.442;2022-07-04T05:43:37;4.15;;;2.28;;
11486;SDS011;10510;47.942;9.442;2022-07-04T05:45:37;6.72;;;2.13;;
11486;SDS011;10510;47.942;9.442;2022-07-04T05:47:38;4.57;;;2.58;;
11486;SDS011;10510;47.942;9.442;2022-07-04T05:49:38;3.83;;;2.20;;
11486;SDS011;10510;47.942;9.442;2022-07-04T05:51:38;3.58;;;1.77;;
11486;SDS011;10510;47.942;9.442;2022-07-04T05:53:39;2.13;;;1.90;;
11486;SDS011;10510;47.942;9.442;2022-07-04T05:55:39;1.85;;;1.60;;
11486;SDS011;10510;47.942;9.442;2022-07-04T05:57:40;4.22;;;2.00;;
11486;SDS011;10510;47.942;9.442;2022-07-04T05:59:40;4.30;;;2.58;;
11486;SDS011;10510;47.942;9.442;2022-07-04T06:01:40;5.20;;;2.22;;
11486;SDS011;10510;47.942;9.442;2022-07-04T06:03:40;4.25;;;2.00;;
11486;SDS011;10510;47.942;9.442;2022-07-04T06:05:41;4.03;;;2.00;;
11486;SDS011;10510;47.942;9.442;2022-07-04T06:07:41;4.10;;;2.40;;
11486;SDS011;10510;47.942;9.442;2022-07-04T06:09:41;5.97;;;2.30;;
11486;SDS011;10510;47.942;9.442;2022-07-04T06:11:42;3.85;;;2.33;;
11486;SDS011;10510;47.942;9.442;2022-07-04T06:13:42;3.15;;;2.45;;
11486;SDS011;10510;47.942;9.442;2022-07-04T06:15:42;5.38;;;2.67;;
11486;SDS011;10510;47.942;9.442;2022-07-04T06:17:43;4.90;;;1.98;;
11486;SDS011;10510;47.942;9.442;2022-07-04T06:19:43;4.43;;;2.50;;
11486;SDS011;10510;47.942;9.442;2022-07-04T06:21:43;3.03;;;2.15;;
11486;SDS011;10510;47.942;9.442;2022-07-04T06:23:43;3.88;;;2.10;;
11486;SDS011;10510;47.942;9.442;2022-07-04T06:25:44;2.53;;;2.08;;
11486;SDS011;10510;47.942;9.442;2022-07-04T06:27:45;4.10;;;1.80;;
11486;SDS011;10510;47.942;9.442;2022-07-04T06:29:47;4.50;;;2.30;;
11486;SDS011;10510;47.942;9.442;2022-07-04T06:31:47;3.53;;;1.67;;
11486;SDS011;10510;47.942;9.442;2022-07-04T06:33:47;3.67;;;1.80;;
11486;SDS011;10510;47.942;9.442;2022-07-04T06:36:07;4.13;;;1.80;;
11486;SDS011;10510;47.942;9.442;2022-07-04T06:38:08;2.50;;;1.60;;
11486;SDS011;10510;47.942;9.442;2022-07-04T06:40:09;4.60;;;1.67;;
11486;SDS011;10510;47.942;9.442;2022-07-04T06:42:10;4.88;;;1.60;;
11486;SDS011;10510;47.942;9.442;2022-07-04T06:44:10;2.65;;;1.33;;
11486;SDS011;10510;47.942;9.442;2022-07-04T06:46:11;3.83;;;1.83;;
11486;SDS011;10510;47.942;9.442;2022-07-04T06:48:11;5.72;;;1.77;;
11486;SDS011;10510;47.942;9.442;2022-07-04T06:50:11;2.95;;;1.50;;
11486;SDS011;10510;47.942;9.442;2022-07-04T06:52:12;3.45;;;1.70;;
11486;SDS011;10510;47.942;9.442;2022-07-04T06:54:12;2.35;;;1.60;;
11486;SDS011;10510;47.942;9.442;2022-07-04T06:56:13;2.90;;;1.60;;
11486;SDS011;10510;47.942;9.442;2022-07-04T06:58:13;2.95;;;1.80;;
11486;SDS011;10510;47.942;9.442;2022-07-04T07:00:13;1.55;;;1.30;;
11486;SDS011;10510;47.942;9.442;2022-07-04T07:02:14;2.75;;;1.60;;
11486;SDS011;10510;47.942;9.442;2022-07-04T07:04:14;3.30;;;1.60;;
11486;SDS011;10510;47.942;9.442;2022-07-04T07:06:14;6.35;;;1.67;;
11486;SDS011;10510;47.942;9.442;2022-07-04T07:08:15;5.13;;;3.03;;
11486;SDS011;10510;47.942;9.442;2022-07-04T07:10:15;4.22;;;1.77;;
11486;SDS011;10510;47.942;9.442;2022-07-04T07:12:15;2.67;;;1.30;;
11486;SDS011;10510;47.942;9.442;2022-07-04T07:14:16;7.72;;;2.72;;
11486;SDS011;10510;47.942;9.442;2022-07-04T07:16:16;2.90;;;1.88;;
11486;SDS011;10510;47.942;9.442;2022-07-04T07:18:17;2.55;;;1.65;;
11486;SDS011;10510;47.942;9.442;2022-07-04T07:20:17;4.20;;;1.80;;
11486;SDS011;10510;47.942;9.442;2022-07-04T07:22:17;2.63;;;1.20;;
11486;SDS011;10510;47.942;9.442;2022-07-04T07:24:18;2.53;;;1.50;;
11486;SDS011;10510;47.942;9.442;2022-07-04T07:26:18;4.22;;;1.42;;
11486;SDS011;10510;47.942;9.442;2022-07-04T07:28:18;2.00;;;1.30;;
11486;SDS011;10510;47.942;9.442;2022-07-04T07:30:19;2.22;;;1.55;;
11486;SDS011;10510;47.942;9.442;2022-07-04T07:32:19;2.15;;;1.70;;
11486;SDS011;10510;47.942;9.442;2022-07-04T07:34:20;3.00;;;1.55;;
11486;SDS011;10510;47.942;9.442;2022-07-04T07:36:20;3.10;;;1.52;;
11486;SDS011;10510;47.942;9.442;2022-07-04T07:38:20;2.28;;;1.60;;
11486;SDS011;10510;47.942;9.442;2022-07-04T07:40:21;3.50;;;1.67;;
11486;SDS011;10510;47.942;9.442;2022-07-04T07:42:23;4.05;;;1.70;;
11486;SDS011;10510;47.942;9.442;2022-07-04T07:44:24;2.95;;;1.50;;
11486;SDS011;10510;47.942;9.442;2022-07-04T07:46:24;2.97;;;1.50;;
11486;SDS011;10510;47.942;9.442;2022-07-04T07:48:24;3.15;;;1.83;;
11486;SDS011;10510;47.942;9.442;2022-07-04T07:50:24;4.15;;;2.47;;
11486;SDS011;10510;47.942;9.442;2022-07-04T07:52:25;7.20;;;2.13;;
11486;SDS011;10510;47.942;9.442;2022-07-04T07:54:25;3.67;;;1.77;;
11486;SDS011;10510;47.942;9.442;2022-07-04T07:56:26;3.45;;;2.15;;
11486;SDS011;10510;47.942;9.442;2022-07-04T07:58:26;14.13;;;7.85;;
11486;SDS011;10510;47.942;9.442;2022-07-04T08:00:27;9.25;;;5.20;;
11486;SDS011;10510;47.942;9.442;2022-07-04T08:02:27;3.00;;;2.05;;
11486;SDS011;10510;47.942;9.442;2022-07-04T08:04:46;2.60;;;1.10;;
11486;SDS011;10510;47.942;9.442;2022-07-04T08:06:46;1.85;;;1.10;;
11486;SDS011;10510;47.942;9.442;2022-07-04T08:08:46;2.75;;;2.00;;
11486;SDS011;10510;47.942;9.442;2022-07-04T08:10:47;2.42;;;1.77;;
11486;SDS011;10510;47.942;9.442;2022-07-04T08:12:47;7.22;;;4.15;;
11486;SDS011;10510;47.942;9.442;2022-07-04T08:14:47;10.13;;;5.63;;
11486;SDS011;10510;47.942;9.442;2022-07-04T08:16:48;3.67;;;1.92;;
11486;SDS011;10510;47.942;9.442;2022-07-04T08:18:48;4.97;;;2.60;;
11486;SDS011;10510;47.942;9.442;2022-07-04T08:20:49;3.88;;;1.60;;
11486;SDS011;10510;47.942;9.442;2022-07-04T08:22:50;2.55;;;1.75;;
11486;SDS011;10510;47.942;9.442;2022-07-04T08:24:50;2.70;;;1.92;;
11486;SDS011;10510;47.942;9.442;2022-07-04T08:26:50;5.10;;;2.78;;
11486;SDS011;10510;47.942;9.442;2022-07-04T08:28:52;5.90;;;1.75;;
11486;SDS011;10510;47.942;9.442;2022-07-04T08:30:52;2.70;;;1.35;;
11486;SDS011;10510;47.942;9.442;2022-07-04T08:32:53;7.80;;;2.35;;
11486;SDS011;10510;47.942;9.442;2022-07-04T08:34:54;3.50;;;1.90;;
11486;SDS011;10510;47.942;9.442;2022-07-04T08:36:57;3.67;;;1.90;;
11486;SDS011;10510;47.942;9.442;2022-07-04T08:38:57;3.22;;;1.67;;
11486;SDS011;10510;47.942;9.442;2022-07-04T08:40:58;3.47;;;1.70;;
11486;SDS011;10510;47.942;9.442;2022-07-04T08:43:02;5.05;;;1.30;;
11486;SDS011;10510;47.942;9.442;2022-07-04T08:45:04;3.38;;;1.90;;
11486;SDS011;10510;47.942;9.442;2022-07-04T08:47:09;4.00;;;2.03;;
11486;SDS011;10510;47.942;9.442;2022-07-04T08:49:23;2.88;;;1.33;;
11486;SDS011;10510;47.942;9.442;2022-07-04T08:51:31;5.88;;;2.03;;
11486;SDS011;10510;47.942;9.442;2022-07-04T08:53:49;5.50;;;1.88;;
11486;SDS011;10510;47.942;9.442;2022-07-04T08:55:55;1.55;;;1.35;;
11486;SDS011;10510;47.942;9.442;2022-07-04T08:58:15;3.13;;;1.52;;
11486;SDS011;10510;47.942;9.442;2022-07-04T09:00:31;4.90;;;1.33;;
11486;SDS011;10510;47.942;9.442;2022-07-04T09:02:32;1.27;;;1.17;;
11486;SDS011;10510;47.942;9.442;2022-07-04T09:04:33;1.52;;;1.08;;
11486;SDS011;10510;47.942;9.442;2022-07-04T09:06:35;1.83;;;1.13;;
11486;SDS011;10510;47.942;9.442;2022-07-04T09:08:35;3.75;;;1.38;;
11486;SDS011;10510;47.942;9.442;2022-07-04T09:10:36;1.98;;;1.27;;
11486;SDS011;10510;47.942;9.442;2022-07-04T09:12:37;1.88;;;1.65;;
11486;SDS011;10510;47.942;9.442;2022-07-04T09:14:37;1.63;;;1.10;;
11486;SDS011;10510;47.942;9.442;2022-07-04T09:16:39;10.35;;;3.55;;
11486;SDS011;10510;47.942;9.442;2022-07-04T09:18:39;12.75;;;3.28;;
11486;SDS011;10510;47.942;9.442;2022-07-04T09:20:40;2.00;;;1.33;;
11486;SDS011;10510;47.942;9.442;2022-07-04T09:22:40;2.90;;;1.27;;
11486;SDS011;10510;47.942;9.442;2022-07-04T09:24:48;2.17;;;1.35;;
11486;SDS011;10510;47.942;9.442;2022-07-04T09:26:50;3.53;;;1.83;;
11486;SDS011;10510;47.942;9.442;2022-07-04T09:28:51;3.80;;;1.92;;
11486;SDS011;10510;47.942;9.442;2022-07-04T09:30:56;6.47;;;1.25;;
11486;SDS011;10510;47.942;9.442;2022-07-04T09:32:58;1.58;;;1.10;;
11486;SDS011;10510;47.942;9.442;2022-07-04T09:35:03;3.15;;;1.40;;
11486;SDS011;10510;47.942;9.442;2022-07-04T09:37:04;3.72;;;1.50;;
11486;SDS011;10510;47.942;9.442;2022-07-04T09:41:05;12.68;;;1.90;;
11486;SDS011;10510;47.942;9.442;2022-07-04T09:43:24;3.17;;;1.90;;
11486;SDS011;10510;47.942;9.442;2022-07-04T09:45:25;1.75;;;1.40;;
11486;SDS011;10510;47.942;9.442;2022-07-04T09:47:27;5.22;;;1.38;;
11486;SDS011;10510;47.942;9.442;2022-07-04T09:49:28;3.22;;;1.23;;
11486;SDS011;10510;47.942;9.442;2022-07-04T09:51:39;2.88;;;1.30;;
11486;SDS011;10510;47.942;9.442;2022-07-04T09:53:41;2.92;;;1.48;;
11486;SDS011;10510;47.942;9.442;2022-07-04T09:55:41;4.10;;;1.30;;
11486;SDS011;10510;47.942;9.442;2022-07-04T09:57:44;2.55;;;1.33;;
11486;SDS011;10510;47.942;9.442;2022-07-04T09:59:45;2.25;;;1.20;;
11486;SDS011;10510;47.942;9.442;2022-07-04T10:01:45;2.45;;;1.58;;
11486;SDS011;10510;47.942;9.442;2022-07-04T10:03:47;3.45;;;2.08;;
11486;SDS011;10510;47.942;9.442;2022-07-04T10:08:05;1.92;;;1.42;;
11486;SDS011;10510;47.942;9.442;2022-07-04T10:12:30;2.90;;;1.35;;
11486;SDS011;10510;47.942;9.442;2022-07-04T10:14:30;1.90;;;1.35;;
11486;SDS011;10510;47.942;9.442;2022-07-04T10:16:31;3.42;;;1.58;;
11486;SDS011;10510;47.942;9.442;2022-07-04T10:18:31;2.65;;;1.42;;
11486;SDS011;10510;47.942;9.442;2022-07-04T10:20:32;3.90;;;1.50;;
11486;SDS011;10510;47.942;9.442;2022-07-04T10:22:32;1.13;;;1.02;;
11486;SDS011;10510;47.942;9.442;2022-07-04T10:24:33;7.55;;;1.70;;
11486;SDS011;10510;47.942;9.442;2022-07-04T10:26:34;3.58;;;1.65;;
11486;SDS011;10510;47.942;9.442;2022-07-04T10:28:36;2.22;;;1.30;;
11486;SDS011;10510;47.942;9.442;2022-07-04T10:30:38;2.95;;;1.55;;
11486;SDS011;10510;47.942;9.442;2022-07-04T10:32:40;3.25;;;1.40;;
11486;SDS011;10510;47.942;9.442;2022-07-04T10:34:43;2.28;;;1.33;;
11486;SDS011;10510;47.942;9.442;2022-07-04T10:36:50;2.38;;;1.40;;
11486;SDS011;10510;47.942;9.442;2022-07-04T10:38:52;5.40;;;1.58;;
11486;SDS011;10510;47.942;9.442;2022-07-04T10:40:54;3.50;;;1.50;;
11486;SDS011;10510;47.942;9.442;2022-07-04T10:42:56;6.45;;;1.75;;
11486;SDS011;10510;47.942;9.442;2022-07-04T10:45:00;2.67;;;1.40;;
11486;SDS011;10510;47.942;9.442;2022-07-04T10:47:00;1.80;;;1.27;;
11486;SDS011;10510;47.942;9.442;2022-07-04T10:51:05;1.52;;;1.40;;
11486;SDS011;10510;47.942;9.442;2022-07-04T10:53:09;3.42;;;1.70;;
11486;SDS011;10510;47.942;9.442;2022-07-04T10:55:10;5.20;;;2.05;;
11486;SDS011;10510;47.942;9.442;2022-07-04T10:59:28;3.22;;;1.98;;
11486;SDS011;10510;47.942;9.442;2022-07-04T11:01:29;2.38;;;1.58;;
11486;SDS011;10510;47.942;9.442;2022-07-04T11:03:29;2.30;;;1.52;;
11486;SDS011;10510;47.942;9.442;2022-07-04T11:05:30;5.15;;;1.50;;
11486;SDS011;10510;47.942;9.442;2022-07-04T11:09:35;3.05;;;1.50;;
11486;SDS011;10510;47.942;9.442;2022-07-04T11:11:54;3.10;;;1.60;;
11486;SDS011;10510;47.942;9.442;2022-07-04T11:16:51;3.70;;;1.52;;
11486;SDS011;10510;47.942;9.442;2022-07-04T11:20:52;2.57;;;1.97;;
11486;SDS011;10510;47.942;9.442;2022-07-04T11:23:15;2.40;;;1.40;;
11486;SDS011;10510;47.942;9.442;2022-07-04T11:25:16;2.10;;;1.30;;
11486;SDS011;10510;47.942;9.442;2022-07-04T11:27:17;2.05;;;1.45;;
11486;SDS011;10510;47.942;9.442;2022-07-04T11:29:21;3.45;;;1.20;;
11486;SDS011;10510;47.942;9.442;2022-07-04T11:31:34;2.97;;;1.52;;
11486;SDS011;10510;47.942;9.442;2022-07-04T11:33:35;2.15;;;1.52;;
11486;SDS011;10510;47.942;9.442;2022-07-04T11:35:37;1.48;;;1.08;;
11486;SDS011;10510;47.942;9.442;2022-07-04T11:37:37;2.53;;;1.50;;
11486;SDS011;10510;47.942;9.442;2022-07-04T11:39:37;3.30;;;1.60;;
11486;SDS011;10510;47.942;9.442;2022-07-04T11:41:39;2.10;;;1.30;;
11486;SDS011;10510;47.942;9.442;2022-07-04T11:44:04;1.83;;;1.38;;
11486;SDS011;10510;47.942;9.442;2022-07-04T11:46:25;1.92;;;1.40;;
11486;SDS011;10510;47.942;9.442;2022-07-04T11:48:26;2.85;;;1.90;;
11486;SDS011;10510;47.942;9.442;2022-07-04T11:50:27;3.15;;;1.85;;
11486;SDS011;10510;47.942;9.442;2022-07-04T11:54:29;1.70;;;1.23;;
11486;SDS011;10510;47.942;9.442;2022-07-04T11:56:30;1.77;;;1.20;;
11486;SDS011;10510;47.942;9.442;2022-07-04T11:58:40;2.70;;;1.33;;
11486;SDS011;10510;47.942;9.442;2022-07-04T12:00:41;1.60;;;1.20;;
11486;SDS011;10510;47.942;9.442;2022-07-04T12:02:42;3.90;;;1.40;;
11486;SDS011;10510;47.942;9.442;2022-07-04T12:04:43;2.55;;;1.17;;
11486;SDS011;10510;47.942;9.442;2022-07-04T12:06:45;3.13;;;1.30;;
11486;SDS011;10510;47.942;9.442;2022-07-04T12:08:47;3.05;;;1.38;;
11486;SDS011;10510;47.942;9.442;2022-07-04T12:10:47;2.45;;;1.27;;
11486;SDS011;10510;47.942;9.442;2022-07-04T12:12:54;1.65;;;1.20;;
11486;SDS011;10510;47.942;9.442;2022-07-04T12:15:06;3.42;;;1.70;;
11486;SDS011;10510;47.942;9.442;2022-07-04T12:17:11;1.95;;;1.25;;
11486;SDS011;10510;47.942;9.442;2022-07-04T12:19:14;6.65;;;1.33;;
11486;SDS011;10510;47.942;9.442;2022-07-04T12:21:15;2.25;;;1.30;;
11486;SDS011;10510;47.942;9.442;2022-07-04T12:23:22;2.17;;;1.60;;
11486;SDS011;10510;47.942;9.442;2022-07-04T12:25:26;2.67;;;1.33;;
11486;SDS011;10510;47.942;9.442;2022-07-04T12:27:31;1.85;;;1.63;;
11486;SDS011;10510;47.942;9.442;2022-07-04T12:29:32;2.65;;;1.38;;
11486;SDS011;10510;47.942;9.442;2022-07-04T12:31:40;3.37;;;1.50;;
11486;SDS011;10510;47.942;9.442;2022-07-04T12:33:42;1.73;;;1.02;;
11486;SDS011;10510;47.942;9.442;2022-07-04T12:35:56;2.55;;;1.30;;